sensor_id;sensor_type;location;lat;lon;timestamp;pressure;altitude;pressure_sealevel;temperature;humidity
65534;BME280;53640;55.838;37.184;2023-06-19T00:00:01;99347.63;;;13.82;38.51
65534;BME280;53640;55.838;37.184;2023-06-19T00:02:42;99360.13;;;13.95;38.87
65534;BME280;53640;55.838;37.184;2023-06-19T00:05:09;99301.13;;;13.60;39.12
65534;BME280;53640;55.838;37.184;2023-06-19T00:07:36;99302.09;;;13.65;39.30
65534;BME280;53640;55.838;37.184;2023-06-19T00:10:04;99371.69;;;14.02;39.67
65534;BME280;53640;55.838;37.184;2023-06-19T00:12:33;99366.34;;;14.07;39.49
65534;BME280;53640;55.838;37.184;2023-06-19T00:15:00;99389.63;;;14.26;39.64
65534;BME280;53640;55.838;37.184;2023-06-19T00:17:31;99282.56;;;13.57;39.55
65534;BME280;53640;55.838;37.184;2023-06-19T00:19:58;99316.63;;;13.71;39.89
65534;BME280;53640;55.838;37.184;2023-06-19T00:22:25;99412.13;;;14.22;40.04
65534;BME280;53640;55.838;37.184;2023-06-19T00:24:52;99329.16;;;13.72;39.94
65534;BME280;53640;55.838;37.184;2023-06-19T00:27:18;99296.53;;;13.49;40.33
65534;BME280;53640;55.838;37.184;2023-06-19T00:29:45;99331.16;;;13.77;40.39
65534;BME280;53640;55.838;37.184;2023-06-19T00:32:12;99398.50;;;14.22;39.83
65534;BME280;53640;55.838;37.184;2023-06-19T00:34:41;99312.47;;;13.68;39.45
65534;BME280;53640;55.838;37.184;2023-06-19T00:37:11;99395.34;;;14.13;39.67
65534;BME280;53640;55.838;37.184;2023-06-19T00:39:42;99321.00;;;13.49;40.40
65534;BME280;53640;55.838;37.184;2023-06-19T00:42:12;99401.75;;;13.95;40.44
65534;BME280;53640;55.838;37.184;2023-06-19T00:44:41;99301.28;;;13.30;40.32
65534;BME280;53640;55.838;37.184;2023-06-19T00:47:13;99353.50;;;13.67;40.13
65534;BME280;53640;55.838;37.184;2023-06-19T00:49:44;99299.28;;;13.37;40.42
65534;BME280;53640;55.838;37.184;2023-06-19T00:52:16;99331.41;;;13.52;40.49
65534;BME280;53640;55.838;37.184;2023-06-19T00:54:44;99347.38;;;13.60;40.59
65534;BME280;53640;55.838;37.184;2023-06-19T00:57:17;99300.69;;;13.28;40.66
65534;BME280;53640;55.838;37.184;2023-06-19T00:59:52;99359.91;;;13.61;40.69
65534;BME280;53640;55.838;37.184;2023-06-19T01:02:22;99327.75;;;13.34;40.81
65534;BME280;53640;55.838;37.184;2023-06-19T01:04:50;99316.06;;;13.22;40.96
65534;BME280;53640;55.838;37.184;2023-06-19T01:10:27;99359.44;;;13.29;41.33
65534;BME280;53640;55.838;37.184;2023-06-19T01:13:01;99300.41;;;12.82;41.58
65534;BME280;53640;55.838;37.184;2023-06-19T01:15:29;99360.81;;;13.08;41.49
65534;BME280;53640;55.838;37.184;2023-06-19T01:17:58;99319.44;;;12.82;41.67
65534;BME280;53640;55.838;37.184;2023-06-19T01:20:26;99285.47;;;12.50;41.82
65534;BME280;53640;55.838;37.184;2023-06-19T01:22:55;99335.94;;;12.69;41.97
65534;BME280;53640;55.838;37.184;2023-06-19T01:25:24;99300.56;;;12.45;42.16
65534;BME280;53640;55.838;37.184;2023-06-19T01:27:51;99331.63;;;12.50;42.81
65534;BME280;53640;55.838;37.184;2023-06-19T01:30:20;99341.28;;;12.45;42.48
65534;BME280;53640;55.838;37.184;2023-06-19T01:33:16;99334.84;;;12.28;42.27
65534;BME280;53640;55.838;37.184;2023-06-19T01:35:51;99360.38;;;12.39;42.59
65534;BME280;53640;55.838;37.184;2023-06-19T01:38:20;99333.97;;;12.16;42.50
65534;BME280;53640;55.838;37.184;2023-06-19T01:40:49;99424.34;;;12.65;42.68
65534;BME280;53640;55.838;37.184;2023-06-19T01:43:18;99297.38;;;11.88;42.65
65534;BME280;53640;55.838;37.184;2023-06-19T01:45:45;99331.03;;;11.99;42.57
65534;BME280;53640;55.838;37.184;2023-06-19T01:48:13;99418.63;;;12.55;42.62
65534;BME280;53640;55.838;37.184;2023-06-19T01:50:46;99394.84;;;12.38;42.76
65534;BME280;53640;55.838;37.184;2023-06-19T01:53:14;99403.19;;;12.37;42.83
65534;BME280;53640;55.838;37.184;2023-06-19T01:55:40;99392.91;;;12.27;42.77
65534;BME280;53640;55.838;37.184;2023-06-19T01:58:07;99376.44;;;12.22;42.60
65534;BME280;53640;55.838;37.184;2023-06-19T02:00:34;99353.13;;;12.03;42.57
65534;BME280;53640;55.838;37.184;2023-06-19T02:03:04;99312.31;;;11.79;42.68
65534;BME280;53640;55.838;37.184;2023-06-19T02:05:32;99418.59;;;12.43;42.51
65534;BME280;53640;55.838;37.184;2023-06-19T02:08:01;99385.78;;;12.26;42.46
65534;BME280;53640;55.838;37.184;2023-06-19T02:10:28;99352.22;;;12.09;42.46
65534;BME280;53640;55.838;37.184;2023-06-19T02:12:56;99310.41;;;11.80;42.32
65534;BME280;53640;55.838;37.184;2023-06-19T02:15:24;99316.66;;;11.80;42.50
65534;BME280;53640;55.838;37.184;2023-06-19T02:17:50;99415.63;;;12.44;42.66
65534;BME280;53640;55.838;37.184;2023-06-19T02:20:22;99325.34;;;11.89;42.81
65534;BME280;53640;55.838;37.184;2023-06-19T02:22:51;99331.59;;;11.89;42.82
65534;BME280;53640;55.838;37.184;2023-06-19T02:25:18;99413.47;;;12.35;42.70
65534;BME280;53640;55.838;37.184;2023-06-19T02:27:46;99413.69;;;12.33;42.63
65534;BME280;53640;55.838;37.184;2023-06-19T02:30:13;99399.53;;;12.31;42.47
65534;BME280;53640;55.838;37.184;2023-06-19T02:32:42;99324.78;;;11.80;42.37
65534;BME280;53640;55.838;37.184;2023-06-19T02:35:11;99356.19;;;12.06;42.31
65534;BME280;53640;55.838;37.184;2023-06-19T02:37:40;99346.63;;;12.04;42.08
65534;BME280;53640;55.838;37.184;2023-06-19T02:40:08;99416.00;;;12.48;41.66
65534;BME280;53640;55.838;37.184;2023-06-19T02:42:37;99330.66;;;11.95;41.62
65534;BME280;53640;55.838;37.184;2023-06-19T02:45:04;99408.84;;;12.54;41.58
65534;BME280;53640;55.838;37.184;2023-06-19T02:47:39;99406.94;;;12.54;41.35
65534;BME280;53640;55.838;37.184;2023-06-19T02:50:08;99392.13;;;12.38;41.58
65534;BME280;53640;55.838;37.184;2023-06-19T02:52:37;99336.38;;;12.06;41.44
65534;BME280;53640;55.838;37.184;2023-06-19T02:55:07;99343.75;;;12.17;41.53
65534;BME280;53640;55.838;37.184;2023-06-19T02:57:34;99371.06;;;12.34;41.33
65534;BME280;53640;55.838;37.184;2023-06-19T03:00:02;99289.38;;;11.93;41.37
65534;BME280;53640;55.838;37.184;2023-06-19T03:02:31;99272.28;;;11.93;41.25
65534;BME280;53640;55.838;37.184;2023-06-19T03:05:01;99353.22;;;12.56;41.12
65534;BME280;53640;55.838;37.184;2023-06-19T03:07:27;99338.41;;;12.40;41.02
65534;BME280;53640;55.838;37.184;2023-06-19T03:09:56;99371.31;;;12.62;40.92
65534;BME280;53640;55.838;37.184;2023-06-19T03:12:26;99291.03;;;12.24;40.40
65534;BME280;53640;55.838;37.184;2023-06-19T03:14:52;99339.66;;;12.56;41.14
65534;BME280;53640;55.838;37.184;2023-06-19T03:17:19;99375.44;;;12.83;40.52
65534;BME280;53640;55.838;37.184;2023-06-19T03:19:47;99291.09;;;12.36;40.26
65534;BME280;53640;55.838;37.184;2023-06-19T03:22:20;99344.66;;;12.71;40.50
65534;BME280;53640;55.838;37.184;2023-06-19T03:24:53;99297.88;;;12.57;40.48
65534;BME280;53640;55.838;37.184;2023-06-19T03:27:25;99335.88;;;12.76;40.83
65534;BME280;53640;55.838;37.184;2023-06-19T03:29:53;99294.34;;;12.57;40.41
65534;BME280;53640;55.838;37.184;2023-06-19T03:32:27;99389.91;;;13.19;40.25
65534;BME280;53640;55.838;37.184;2023-06-19T03:34:54;99303.91;;;12.71;39.89
65534;BME280;53640;55.838;37.184;2023-06-19T03:37:23;99316.41;;;12.90;39.49
65534;BME280;53640;55.838;37.184;2023-06-19T03:39:52;99307.53;;;12.83;39.62
65534;BME280;53640;55.838;37.184;2023-06-19T03:42:21;99292.41;;;12.76;39.41
65534;BME280;53640;55.838;37.184;2023-06-19T03:44:48;99350.94;;;13.25;39.39
65534;BME280;53640;55.838;37.184;2023-06-19T03:47:15;99374.69;;;13.41;39.58
65534;BME280;53640;55.838;37.184;2023-06-19T03:49:42;99338.41;;;13.24;39.60
65534;BME280;53640;55.838;37.184;2023-06-19T03:52:09;99341.69;;;13.26;39.16
65534;BME280;53640;55.838;37.184;2023-06-19T03:54:36;99421.91;;;13.82;38.95
65534;BME280;53640;55.838;37.184;2023-06-19T03:57:03;99315.00;;;13.23;38.90
65534;BME280;53640;55.838;37.184;2023-06-19T03:59:30;99351.63;;;13.56;38.77
65534;BME280;53640;55.838;37.184;2023-06-19T04:01:58;99358.25;;;13.60;38.79
65534;BME280;53640;55.838;37.184;2023-06-19T04:04:25;99354.44;;;13.61;38.90
65534;BME280;53640;55.838;37.184;2023-06-19T04:06:55;99296.44;;;13.32;38.41
65534;BME280;53640;55.838;37.184;2023-06-19T04:09:22;99384.50;;;13.89;38.33
65534;BME280;53640;55.838;37.184;2023-06-19T04:11:51;99309.88;;;13.50;38.32
65534;BME280;53640;55.838;37.184;2023-06-19T04:14:17;99422.31;;;14.26;38.01
65534;BME280;53640;55.838;37.184;2023-06-19T04:16:45;99409.75;;;14.25;37.94
65534;BME280;53640;55.838;37.184;2023-06-19T04:19:12;99295.78;;;13.65;37.84
65534;BME280;53640;55.838;37.184;2023-06-19T04:21:39;99417.63;;;14.50;37.73
65534;BME280;53640;55.838;37.184;2023-06-19T04:24:06;99303.34;;;13.86;37.02
65534;BME280;53640;55.838;37.184;2023-06-19T04:26:36;99375.72;;;14.39;37.48
65534;BME280;53640;55.838;37.184;2023-06-19T04:29:05;99424.41;;;14.76;36.79
65534;BME280;53640;55.838;37.184;2023-06-19T04:31:34;99391.84;;;14.70;36.40
65534;BME280;53640;55.838;37.184;2023-06-19T04:34:08;99346.94;;;14.44;34.91
65534;BME280;53640;55.838;37.184;2023-06-19T04:36:34;99331.06;;;14.40;35.19
65534;BME280;53640;55.838;37.184;2023-06-19T04:39:02;99356.34;;;14.64;35.27
65534;BME280;53640;55.838;37.184;2023-06-19T04:41:29;99362.72;;;14.70;34.65
65534;BME280;53640;55.838;37.184;2023-06-19T04:43:57;99358.94;;;14.71;34.13
65534;BME280;53640;55.838;37.184;2023-06-19T04:46:23;99305.03;;;14.45;33.04
65534;BME280;53640;55.838;37.184;2023-06-19T04:48:49;99359.59;;;14.78;32.73
65534;BME280;53640;55.838;37.184;2023-06-19T04:51:18;99312.31;;;14.56;33.13
65534;BME280;53640;55.838;37.184;2023-06-19T04:53:50;99381.19;;;15.13;33.08
65534;BME280;53640;55.838;37.184;2023-06-19T04:56:17;99331.13;;;14.86;33.12
65534;BME280;53640;55.838;37.184;2023-06-19T04:58:44;99392.41;;;15.34;32.55
65534;BME280;53640;55.838;37.184;2023-06-19T05:01:15;99356.66;;;15.13;32.17
65534;BME280;53640;55.838;37.184;2023-06-19T05:03:45;99298.72;;;14.89;32.29
65534;BME280;53640;55.838;37.184;2023-06-19T05:06:14;99330.19;;;15.14;32.21
65534;BME280;53640;55.838;37.184;2023-06-19T05:08:42;99412.44;;;15.73;31.01
65534;BME280;53640;55.838;37.184;2023-06-19T05:11:11;99372.91;;;15.42;30.75
65534;BME280;53640;55.838;37.184;2023-06-19T05:13:38;99381.09;;;15.59;30.98
65534;BME280;53640;55.838;37.184;2023-06-19T05:16:04;99296.16;;;15.17;31.15
65534;BME280;53640;55.838;37.184;2023-06-19T05:18:31;99363.59;;;15.55;30.79
65534;BME280;53640;55.838;37.184;2023-06-19T05:20:57;99382.09;;;15.70;30.74
65534;BME280;53640;55.838;37.184;2023-06-19T05:23:24;99319.09;;;15.37;31.35
65534;BME280;53640;55.838;37.184;2023-06-19T05:25:51;99419.41;;;16.03;30.87
65534;BME280;53640;55.838;37.184;2023-06-19T05:28:17;99394.88;;;15.86;31.13
65534;BME280;53640;55.838;37.184;2023-06-19T05:30:44;99290.25;;;15.42;31.28
65534;BME280;53640;55.838;37.184;2023-06-19T05:33:13;99309.34;;;15.58;31.08
65534;BME280;53640;55.838;37.184;2023-06-19T05:35:42;99378.19;;;16.04;30.66
65534;BME280;53640;55.838;37.184;2023-06-19T05:38:11;99396.50;;;16.26;30.45
65534;BME280;53640;55.838;37.184;2023-06-19T05:40:37;99386.88;;;16.23;30.25
65534;BME280;53640;55.838;37.184;2023-06-19T05:43:06;99413.00;;;16.36;30.39
65534;BME280;53640;55.838;37.184;2023-06-19T05:45:32;99311.50;;;15.78;30.17
65534;BME280;53640;55.838;37.184;2023-06-19T05:47:59;99388.75;;;16.40;29.71
65534;BME280;53640;55.838;37.184;2023-06-19T05:50:29;99335.63;;;16.08;29.44
65534;BME280;53640;55.838;37.184;2023-06-19T05:52:59;99349.72;;;16.22;29.31
65534;BME280;53640;55.838;37.184;2023-06-19T05:55:26;99320.16;;;16.14;29.61
65534;BME280;53640;55.838;37.184;2023-06-19T05:57:57;99339.00;;;16.38;28.95
65534;BME280;53640;55.838;37.184;2023-06-19T06:00:35;99288.66;;;16.06;28.69
65534;BME280;53640;55.838;37.184;2023-06-19T06:03:02;99400.69;;;16.82;28.98
65534;BME280;53640;55.838;37.184;2023-06-19T06:05:29;99353.69;;;16.58;28.49
65534;BME280;53640;55.838;37.184;2023-06-19T06:07:57;99381.81;;;16.81;28.82
65534;BME280;53640;55.838;37.184;2023-06-19T06:10:24;99342.22;;;16.56;28.62
65534;BME280;53640;55.838;37.184;2023-06-19T06:12:53;99289.19;;;16.30;28.44
65534;BME280;53640;55.838;37.184;2023-06-19T06:15:23;99311.88;;;16.58;28.38
65534;BME280;53640;55.838;37.184;2023-06-19T06:17:50;99333.38;;;16.76;28.87
65534;BME280;53640;55.838;37.184;2023-06-19T06:20:17;99376.13;;;17.15;28.60
65534;BME280;53640;55.838;37.184;2023-06-19T06:22:44;99305.25;;;16.81;28.92
65534;BME280;53640;55.838;37.184;2023-06-19T06:25:16;99267.97;;;16.70;28.72
65534;BME280;53640;55.838;37.184;2023-06-19T06:27:45;99354.66;;;17.34;28.05
65534;BME280;53640;55.838;37.184;2023-06-19T06:30:12;99383.84;;;17.60;28.20
65534;BME280;53640;55.838;37.184;2023-06-19T06:32:40;99364.97;;;17.64;27.65
65534;BME280;53640;55.838;37.184;2023-06-19T06:35:08;99318.56;;;17.37;27.00
65534;BME280;53640;55.838;37.184;2023-06-19T06:37:38;99390.59;;;17.85;27.54
65534;BME280;53640;55.838;37.184;2023-06-19T06:40:07;99396.59;;;17.87;27.24
65534;BME280;53640;55.838;37.184;2023-06-19T06:42:38;99362.00;;;17.70;26.98
65534;BME280;53640;55.838;37.184;2023-06-19T06:45:05;99375.25;;;17.89;27.45
65534;BME280;53640;55.838;37.184;2023-06-19T06:47:34;99357.72;;;17.85;27.37
65534;BME280;53640;55.838;37.184;2023-06-19T06:50:00;99401.72;;;18.15;27.22
65534;BME280;53640;55.838;37.184;2023-06-19T06:52:29;99394.09;;;18.22;27.39
65534;BME280;53640;55.838;37.184;2023-06-19T06:54:57;99391.38;;;18.33;27.76
65534;BME280;53640;55.838;37.184;2023-06-19T06:57:23;99384.81;;;18.39;27.25
65534;BME280;53640;55.838;37.184;2023-06-19T06:59:54;99356.59;;;18.33;26.61
65534;BME280;53640;55.838;37.184;2023-06-19T07:02:21;99352.50;;;18.41;26.81
65534;BME280;53640;55.838;37.184;2023-06-19T07:04:50;99319.31;;;18.32;26.56
65534;BME280;53640;55.838;37.184;2023-06-19T07:07:19;99380.28;;;18.80;26.83
65534;BME280;53640;55.838;37.184;2023-06-19T07:09:50;99343.25;;;18.67;26.42
65534;BME280;53640;55.838;37.184;2023-06-19T07:12:16;99371.25;;;18.95;26.52
65534;BME280;53640;55.838;37.184;2023-06-19T07:14:47;99354.78;;;18.95;26.44
65534;BME280;53640;55.838;37.184;2023-06-19T07:17:15;99366.88;;;19.14;26.17
65534;BME280;53640;55.838;37.184;2023-06-19T07:19:45;99369.63;;;19.24;26.08
65534;BME280;53640;55.838;37.184;2023-06-19T07:22:15;99359.72;;;19.29;25.64
65534;BME280;53640;55.838;37.184;2023-06-19T07:24:42;99334.50;;;19.21;24.53
65534;BME280;53640;55.838;37.184;2023-06-19T07:27:09;99284.56;;;18.99;25.14
65534;BME280;53640;55.838;37.184;2023-06-19T07:29:41;99354.25;;;19.44;24.88
65534;BME280;53640;55.838;37.184;2023-06-19T07:32:08;99366.06;;;19.50;24.70
65534;BME280;53640;55.838;37.184;2023-06-19T07:34:41;99320.78;;;19.16;24.27
65534;BME280;53640;55.838;37.184;2023-06-19T07:37:46;99372.91;;;19.57;24.79
65534;BME280;53640;55.838;37.184;2023-06-19T07:40:13;99314.47;;;19.26;24.90
65534;BME280;53640;55.838;37.184;2023-06-19T07:42:41;99317.47;;;19.40;24.84
65534;BME280;53640;55.838;37.184;2023-06-19T07:45:13;99327.88;;;19.58;24.24
65534;BME280;53640;55.838;37.184;2023-06-19T07:47:40;99266.94;;;19.36;24.68
65534;BME280;53640;55.838;37.184;2023-06-19T07:50:07;99265.06;;;19.41;24.43
65534;BME280;53640;55.838;37.184;2023-06-19T07:52:34;99357.91;;;20.19;24.06
65534;BME280;53640;55.838;37.184;2023-06-19T07:55:01;99277.88;;;19.71;23.76
65534;BME280;53640;55.838;37.184;2023-06-19T07:57:30;99318.91;;;20.07;23.99
65534;BME280;53640;55.838;37.184;2023-06-19T07:59:56;99366.69;;;20.27;24.34
65534;BME280;53640;55.838;37.184;2023-06-19T08:02:26;99369.38;;;20.37;23.66
65534;BME280;53640;55.838;37.184;2023-06-19T08:05:04;99289.31;;;19.94;22.46
65534;BME280;53640;55.838;37.184;2023-06-19T08:07:31;99328.72;;;20.34;22.52
65534;BME280;53640;55.838;37.184;2023-06-19T08:09:58;99286.97;;;20.27;22.57
65534;BME280;53640;55.838;37.184;2023-06-19T08:12:24;99342.25;;;20.70;22.38
65534;BME280;53640;55.838;37.184;2023-06-19T08:14:55;99270.91;;;20.44;22.30
65534;BME280;53640;55.838;37.184;2023-06-19T08:17:24;99347.22;;;21.07;22.28
65534;BME280;53640;55.838;37.184;2023-06-19T08:19:53;99281.69;;;20.75;22.04
65534;BME280;53640;55.838;37.184;2023-06-19T08:22:21;99287.50;;;21.07;22.05
65534;BME280;53640;55.838;37.184;2023-06-19T08:24:48;99350.34;;;21.58;21.31
65534;BME280;53640;55.838;37.184;2023-06-19T08:27:15;99342.03;;;21.63;21.35
65534;BME280;53640;55.838;37.184;2023-06-19T08:29:42;99350.16;;;21.79;21.22
65534;BME280;53640;55.838;37.184;2023-06-19T08:32:09;99349.16;;;21.94;20.47
65534;BME280;53640;55.838;37.184;2023-06-19T08:34:35;99336.88;;;22.05;20.83
65534;BME280;53640;55.838;37.184;2023-06-19T08:37:03;99332.38;;;22.14;20.67
65534;BME280;53640;55.838;37.184;2023-06-19T08:39:29;99350.16;;;22.46;20.57
65534;BME280;53640;55.838;37.184;2023-06-19T08:42:00;99352.84;;;22.51;19.86
65534;BME280;53640;55.838;37.184;2023-06-19T08:44:30;99295.13;;;22.17;20.17
65534;BME280;53640;55.838;37.184;2023-06-19T08:46:57;99347.47;;;22.59;20.77
65534;BME280;53640;55.838;37.184;2023-06-19T08:49:24;99292.66;;;22.34;20.39
65534;BME280;53640;55.838;37.184;2023-06-19T08:51:50;99289.53;;;22.41;20.94
65534;BME280;53640;55.838;37.184;2023-06-19T08:54:17;99329.03;;;22.74;20.74
65534;BME280;53640;55.838;37.184;2023-06-19T08:56:44;99304.91;;;22.84;20.24
65534;BME280;53640;55.838;37.184;2023-06-19T08:59:17;99308.81;;;22.97;20.02
65534;BME280;53640;55.838;37.184;2023-06-19T09:01:53;99337.16;;;23.36;19.79
65534;BME280;53640;55.838;37.184;2023-06-19T09:04:31;99307.41;;;23.32;18.89
65534;BME280;53640;55.838;37.184;2023-06-19T09:07:02;99323.72;;;23.62;19.12
65534;BME280;53640;55.838;37.184;2023-06-19T09:09:35;99308.16;;;23.66;18.99
65534;BME280;53640;55.838;37.184;2023-06-19T09:12:11;99334.72;;;24.08;18.81
65534;BME280;53640;55.838;37.184;2023-06-19T09:14:42;99323.53;;;24.27;18.50
65534;BME280;53640;55.838;37.184;2023-06-19T09:17:17;99328.25;;;24.26;18.01
65534;BME280;53640;55.838;37.184;2023-06-19T09:19:49;99333.00;;;24.48;17.17
65534;BME280;53640;55.838;37.184;2023-06-19T09:22:18;99300.31;;;24.50;17.35
65534;BME280;53640;55.838;37.184;2023-06-19T09:24:45;99322.94;;;24.89;17.24
65534;BME280;53640;55.838;37.184;2023-06-19T09:27:19;99314.81;;;24.92;17.35
65534;BME280;53640;55.838;37.184;2023-06-19T09:29:52;99310.19;;;25.24;16.96
65534;BME280;53640;55.838;37.184;2023-06-19T09:32:23;99305.34;;;25.38;16.79
65534;BME280;53640;55.838;37.184;2023-06-19T09:34:54;99295.16;;;25.47;16.95
65534;BME280;53640;55.838;37.184;2023-06-19T09:37:24;99300.09;;;25.59;16.42
65534;BME280;53640;55.838;37.184;2023-06-19T09:39:53;99295.53;;;25.63;16.80
65534;BME280;53640;55.838;37.184;2023-06-19T09:42:30;99288.78;;;25.78;16.70
65534;BME280;53640;55.838;37.184;2023-06-19T09:45:05;99294.63;;;25.77;16.38
65534;BME280;53640;55.838;37.184;2023-06-19T09:47:45;99269.66;;;25.77;16.80
65534;BME280;53640;55.838;37.184;2023-06-19T09:50:14;99289.00;;;26.08;16.48
65534;BME280;53640;55.838;37.184;2023-06-19T09:52:44;99304.38;;;26.23;16.46
65534;BME280;53640;55.838;37.184;2023-06-19T09:55:12;99293.16;;;26.36;16.58
65534;BME280;53640;55.838;37.184;2023-06-19T09:57:43;99296.94;;;26.49;15.87
65534;BME280;53640;55.838;37.184;2023-06-19T10:00:12;99305.72;;;26.77;16.02
65534;BME280;53640;55.838;37.184;2023-06-19T10:02:44;99299.03;;;27.13;15.72
65534;BME280;53640;55.838;37.184;2023-06-19T10:05:28;99264.19;;;27.24;15.39
65534;BME280;53640;55.838;37.184;2023-06-19T10:07:56;99283.56;;;27.50;15.53
65534;BME280;53640;55.838;37.184;2023-06-19T10:10:27;99289.50;;;27.78;15.16
65534;BME280;53640;55.838;37.184;2023-06-19T10:12:57;99264.06;;;27.88;15.04
65534;BME280;53640;55.838;37.184;2023-06-19T10:15:26;99275.09;;;28.06;14.83
65534;BME280;53640;55.838;37.184;2023-06-19T10:18:03;99276.09;;;28.10;14.72
65534;BME280;53640;55.838;37.184;2023-06-19T10:20:32;99287.00;;;28.36;14.99
65534;BME280;53640;55.838;37.184;2023-06-19T10:23:04;99277.25;;;28.51;14.18
65534;BME280;53640;55.838;37.184;2023-06-19T10:25:34;99226.78;;;28.31;14.69
65534;BME280;53640;55.838;37.184;2023-06-19T10:28:06;99268.97;;;28.96;13.36
65534;BME280;53640;55.838;37.184;2023-06-19T10:30:44;99278.03;;;29.26;13.04
65534;BME280;53640;55.838;37.184;2023-06-19T10:33:11;99271.44;;;29.43;13.20
65534;BME280;53640;55.838;37.184;2023-06-19T10:35:39;99266.34;;;29.82;12.75
65534;BME280;53640;55.838;37.184;2023-06-19T10:38:07;99276.63;;;30.02;12.34
65534;BME280;53640;55.838;37.184;2023-06-19T10:40:36;99273.13;;;30.06;12.06
65534;BME280;53640;55.838;37.184;2023-06-19T10:43:03;99269.97;;;29.95;12.09
65534;BME280;53640;55.838;37.184;2023-06-19T10:45:32;99274.63;;;29.91;11.99
65534;BME280;53640;55.838;37.184;2023-06-19T10:48:01;99271.38;;;30.13;11.74
65534;BME280;53640;55.838;37.184;2023-06-19T10:50:42;99263.44;;;30.15;11.78
65534;BME280;53640;55.838;37.184;2023-06-19T10:53:08;99222.78;;;30.02;12.00
65534;BME280;53640;55.838;37.184;2023-06-19T11:00:28;99269.84;;;30.68;11.11
65534;BME280;53640;55.838;37.184;2023-06-19T11:03:23;99211.34;;;30.47;11.47
65534;BME280;53640;55.838;37.184;2023-06-19T11:05:52;99156.44;;;30.11;11.95
65534;BME280;53640;55.838;37.184;2023-06-19T11:08:22;99221.88;;;30.66;12.18
65534;BME280;53640;55.838;37.184;2023-06-19T11:10:50;99158.56;;;30.58;12.07
65534;BME280;53640;55.838;37.184;2023-06-19T11:13:19;99234.97;;;31.06;11.75
65534;BME280;53640;55.838;37.184;2023-06-19T11:15:50;99210.69;;;31.10;12.15
65534;BME280;53640;55.838;37.184;2023-06-19T11:18:21;99197.00;;;31.05;11.84
65534;BME280;53640;55.838;37.184;2023-06-19T11:20:52;99186.44;;;31.14;11.93
65534;BME280;53640;55.838;37.184;2023-06-19T11:23:26;99187.50;;;31.26;11.18
65534;BME280;53640;55.838;37.184;2023-06-19T11:25:53;99176.41;;;31.29;11.04
65534;BME280;53640;55.838;37.184;2023-06-19T11:28:20;99193.66;;;31.47;11.91
65534;BME280;53640;55.838;37.184;2023-06-19T11:30:57;99144.16;;;31.00;11.91
65534;BME280;53640;55.838;37.184;2023-06-19T11:33:23;99181.00;;;31.21;11.45
65534;BME280;53640;55.838;37.184;2023-06-19T11:35:52;99182.66;;;31.54;11.45
65534;BME280;53640;55.838;37.184;2023-06-19T11:38:22;99233.78;;;32.02;10.72
65534;BME280;53640;55.838;37.184;2023-06-19T11:40:49;99231.66;;;32.15;10.72
65534;BME280;53640;55.838;37.184;2023-06-19T11:43:28;99187.09;;;31.90;10.67
65534;BME280;53640;55.838;37.184;2023-06-19T11:46:05;99178.88;;;31.82;11.02
65534;BME280;53640;55.838;37.184;2023-06-19T11:48:37;99152.47;;;31.63;10.77
65534;BME280;53640;55.838;37.184;2023-06-19T11:51:04;99168.84;;;31.81;10.36
65534;BME280;53640;55.838;37.184;2023-06-19T11:53:34;99175.34;;;31.85;9.87
65534;BME280;53640;55.838;37.184;2023-06-19T11:56:00;99131.97;;;31.59;10.22
65534;BME280;53640;55.838;37.184;2023-06-19T11:58:26;99176.22;;;31.89;9.88
65534;BME280;53640;55.838;37.184;2023-06-19T12:00:53;99216.53;;;32.19;9.95
65534;BME280;53640;55.838;37.184;2023-06-19T12:03:20;99107.25;;;31.61;10.32
65534;BME280;53640;55.838;37.184;2023-06-19T12:05:46;99209.00;;;32.04;10.06
65534;BME280;53640;55.838;37.184;2023-06-19T12:08:15;99105.81;;;31.01;10.32
65534;BME280;53640;55.838;37.184;2023-06-19T12:10:42;99213.94;;;31.28;11.41
65534;BME280;53640;55.838;37.184;2023-06-19T12:13:12;99171.88;;;30.77;11.19
65534;BME280;53640;55.838;37.184;2023-06-19T12:15:41;99141.09;;;30.33;11.31
65534;BME280;53640;55.838;37.184;2023-06-19T12:18:12;99181.31;;;30.44;10.87
65534;BME280;53640;55.838;37.184;2023-06-19T12:20:40;99145.41;;;30.02;11.95
65534;BME280;53640;55.838;37.184;2023-06-19T12:23:09;99151.56;;;30.36;11.39
65534;BME280;53640;55.838;37.184;2023-06-19T12:25:40;99188.75;;;30.96;11.64
65534;BME280;53640;55.838;37.184;2023-06-19T12:28:12;99110.13;;;30.82;11.24
65534;BME280;53640;55.838;37.184;2023-06-19T12:30:45;99102.72;;;30.90;11.37
65534;BME280;53640;55.838;37.184;2023-06-19T12:33:20;99109.06;;;31.18;11.47
65534;BME280;53640;55.838;37.184;2023-06-19T12:35:52;99120.47;;;31.45;11.30
65534;BME280;53640;55.838;37.184;2023-06-19T12:38:20;99156.31;;;31.75;11.57
65534;BME280;53640;55.838;37.184;2023-06-19T12:40:47;99128.63;;;31.18;11.57
65534;BME280;53640;55.838;37.184;2023-06-19T12:43:20;99116.00;;;31.09;11.68
65534;BME280;53640;55.838;37.184;2023-06-19T12:45:47;99181.53;;;31.43;11.17
65534;BME280;53640;55.838;37.184;2023-06-19T12:48:16;99109.19;;;30.94;11.32
65534;BME280;53640;55.838;37.184;2023-06-19T12:50:47;99187.44;;;31.38;11.53
65534;BME280;53640;55.838;37.184;2023-06-19T12:53:27;99173.97;;;31.28;11.88
65534;BME280;53640;55.838;37.184;2023-06-19T12:56:03;99123.56;;;30.92;11.66
65534;BME280;53640;55.838;37.184;2023-06-19T12:58:36;99167.75;;;31.03;11.37
65534;BME280;53640;55.838;37.184;2023-06-19T13:01:06;99054.31;;;30.10;11.88
65534;BME280;53640;55.838;37.184;2023-06-19T13:03:35;99138.28;;;30.05;12.65
65534;BME280;53640;55.838;37.184;2023-06-19T13:06:02;99122.34;;;29.41;12.70
65534;BME280;53640;55.838;37.184;2023-06-19T13:08:30;99159.97;;;28.98;13.50